Terminal Aerodrome Forecast
Issued by NWS

Home | Current Version | Previous Version | Text Only | Print | Product List | Glossary On
Versions: 1 2 3 4 5 6 7 8 9 10 11 12 13 14 15 16 17 18 19 20 21
000
FTUS43 KDVN 202300
TAFCID
TAF
KCID 202330Z 2100/2124 28009KT P6SM SCT060
     FM210200 25007KT P6SM BKN120
     FM210300 30015G24KT P6SM BKN060
     FM210500 33011G18KT P6SM SKC
     FM211600 34016G24KT P6SM SCT030=

USA.gov is the U.S. government's official web portal to all federal, state and local government web resources and services.